createdAt,value
2022-09-23T00:01:26.639Z,85.83
2022-09-23T00:03:55.037Z,85.87
2022-09-23T00:06:24.133Z,85.92
2022-09-23T00:08:52.521Z,85.97
2022-09-23T00:11:28.571Z,85.90
2022-09-23T00:13:58.792Z,85.80
2022-09-23T00:16:30.798Z,85.70
2022-09-23T00:18:58.921Z,85.66
2022-09-23T00:21:27.463Z,85.70
2022-09-23T00:23:55.544Z,85.62
2022-09-23T00:26:23.850Z,85.51
2022-09-23T00:28:52.021Z,85.54
2022-09-23T00:31:23.753Z,85.60
2022-09-23T00:34:01.908Z,85.58
2022-09-23T00:36:32.490Z,85.59
2022-09-23T00:39:00.380Z,85.45
2022-09-23T00:41:28.248Z,85.39
2022-09-23T00:43:59.796Z,85.55
2022-09-23T00:46:37.298Z,85.59
2022-09-23T00:49:21.946Z,85.61
2022-09-23T00:51:55.962Z,85.67
2022-09-23T00:54:27.518Z,85.56
2022-09-23T00:56:57.799Z,85.63
2022-09-23T00:59:26.469Z,85.55
2022-09-23T01:01:58.030Z,85.57
2022-09-23T01:04:28.494Z,85.50
2022-09-23T01:07:11.644Z,85.42
2022-09-23T01:09:39.757Z,85.49
2022-09-23T01:12:23.321Z,85.40
2022-09-23T01:15:05.525Z,85.42
2022-09-23T01:17:40.458Z,85.35
2022-09-23T01:20:30.130Z,85.43
2022-09-23T01:23:19.910Z,85.53
2022-09-23T01:26:12.147Z,85.60
2022-09-23T01:28:58.444Z,85.52
2022-09-23T01:31:43.105Z,85.51
2022-09-23T01:34:22.491Z,85.72
2022-09-23T01:37:14.267Z,85.68
2022-09-23T01:39:58.310Z,85.70
2022-09-23T01:42:39.636Z,85.66
2022-09-23T01:45:16.335Z,85.72
2022-09-23T01:48:13.959Z,85.81
2022-09-23T01:50:59.100Z,85.77
2022-09-23T01:53:45.502Z,85.81
2022-09-23T01:56:20.733Z,85.79
2022-09-23T01:59:01.709Z,85.88
2022-09-23T02:01:56.128Z,85.95
2022-09-23T02:04:54.478Z,85.92
2022-09-23T02:07:32.379Z,86.01
2022-09-23T02:10:25.295Z,85.95
2022-09-23T02:13:00.102Z,86.07
2022-09-23T02:15:37.041Z,86.09
2022-09-23T02:18:20.071Z,86.21
2022-09-23T02:20:50.747Z,86.46
2022-09-23T02:23:27.773Z,86.44
2022-09-23T02:26:12.076Z,86.40
2022-09-23T02:28:52.558Z,86.47
2022-09-23T02:31:47.888Z,86.65
2022-09-23T02:35:00.406Z,86.59
2022-09-23T02:37:48.342Z,86.64
2022-09-23T02:40:23.789Z,86.61
2022-09-23T02:43:06.290Z,86.56
2022-09-23T02:45:34.534Z,86.60
2022-09-23T02:48:18.506Z,86.48
2022-09-23T02:50:47.917Z,86.27
2022-09-23T02:53:16.318Z,86.21
2022-09-23T02:55:44.645Z,86.31
2022-09-23T02:58:14.188Z,86.52
2022-09-23T03:00:44.732Z,86.35
2022-09-23T03:03:33.964Z,86.27
2022-09-23T03:06:28.964Z,86.34
2022-09-23T03:09:21.924Z,86.39
2022-09-23T03:12:03.203Z,86.52
2022-09-23T03:14:54.037Z,86.46
2022-09-23T03:17:53.260Z,86.43
2022-09-23T03:20:27.213Z,86.69
2022-09-23T03:23:02.964Z,86.79
2022-09-23T03:25:34.621Z,86.79
2022-09-23T03:28:04.842Z,86.98
2022-09-23T03:30:38.132Z,87.20
2022-09-23T03:33:09.785Z,87.30
2022-09-23T03:36:03.044Z,87.30
2022-09-23T03:38:36.687Z,87.50
2022-09-23T03:41:08.682Z,87.44
2022-09-23T03:43:38.964Z,87.47
2022-09-23T03:46:08.372Z,87.55
2022-09-23T03:48:36.198Z,87.65
2022-09-23T03:51:20.362Z,88.09
2022-09-23T03:53:48.484Z,87.95
2022-09-23T03:56:16.904Z,87.83
2022-09-23T03:58:47.033Z,87.79
2022-09-23T04:01:15.126Z,87.75
2022-09-23T04:03:43.662Z,87.86
2022-09-23T04:06:11.402Z,87.86
2022-09-23T04:08:39.190Z,87.63
2022-09-23T04:11:07.260Z,87.98
2022-09-23T04:13:35.125Z,88.32
2022-09-23T04:16:02.957Z,88.14
2022-09-23T04:18:31.573Z,88.01
2022-09-23T04:21:00.108Z,88.17
2022-09-23T04:23:28.328Z,88.56
2022-09-23T04:25:56.325Z,88.52
2022-09-23T04:28:24.165Z,88.67
2022-09-23T04:30:52.028Z,88.65
2022-09-23T04:33:19.792Z,88.58
2022-09-23T04:35:52.677Z,88.67
2022-09-23T04:38:20.545Z,88.69
2022-09-23T04:40:49.072Z,88.60
2022-09-23T04:43:17.336Z,88.73
2022-09-23T04:45:45.392Z,88.55
2022-09-23T04:48:14.052Z,88.37
2022-09-23T04:50:42.328Z,88.27
2022-09-23T04:53:10.499Z,88.50
2022-09-23T04:55:38.264Z,88.36
2022-09-23T04:58:06.027Z,88.50
2022-09-23T05:00:33.937Z,88.28
2022-09-23T05:03:01.960Z,88.41
2022-09-23T05:05:31.036Z,88.60
2022-09-23T05:07:58.817Z,88.60
2022-09-23T05:10:26.576Z,88.73
2022-09-23T05:12:57.273Z,88.51
2022-09-23T05:15:25.285Z,89.07
2022-09-23T05:17:53.275Z,88.94
2022-09-23T05:20:21.119Z,89.09
2022-09-23T05:22:48.906Z,89.20
2022-09-23T05:25:16.950Z,89.28
2022-09-23T05:27:44.721Z,89.10
2022-09-23T05:30:12.743Z,89.02
2022-09-23T05:32:40.546Z,89.04
2022-09-23T05:35:08.820Z,89.29
2022-09-23T05:37:37.336Z,88.90
2022-09-23T05:40:06.032Z,88.93
2022-09-23T05:42:33.841Z,88.81
2022-09-23T05:45:01.820Z,88.99
2022-09-23T05:47:29.585Z,89.10
2022-09-23T05:50:00.287Z,89.16
2022-09-23T05:52:28.591Z,89.15
2022-09-23T05:54:56.358Z,88.99
2022-09-23T05:57:24.835Z,89.18
2022-09-23T05:59:52.801Z,88.97
2022-09-23T06:02:20.632Z,89.14
2022-09-23T06:04:48.535Z,89.04
2022-09-23T06:07:16.298Z,89.02
2022-09-23T06:09:44.264Z,89.24
2022-09-23T06:12:14.286Z,89.28
2022-09-23T06:14:42.245Z,88.98
2022-09-23T06:17:10.113Z,89.19
2022-09-23T06:19:37.977Z,89.00
2022-09-23T06:22:05.742Z,89.30
2022-09-23T06:24:33.505Z,89.30
2022-09-23T06:27:01.528Z,89.25
2022-09-23T06:29:31.078Z,89.45
2022-09-23T06:31:59.878Z,89.24
2022-09-23T06:34:27.868Z,89.05
2022-09-23T06:36:55.808Z,89.15
2022-09-23T06:39:23.771Z,89.23
2022-09-23T06:41:51.635Z,89.25
2022-09-23T06:44:19.603Z,89.19
2022-09-23T06:46:47.921Z,89.23
2022-09-23T06:49:15.700Z,89.19
2022-09-23T06:51:43.486Z,89.29
2022-09-23T06:54:11.387Z,89.31
2022-09-23T06:56:40.167Z,89.77
2022-09-23T06:59:11.070Z,89.71
2022-09-23T07:01:39.323Z,89.96
2022-09-23T07:04:08.029Z,89.74
2022-09-23T07:06:36.335Z,89.76
2022-09-23T07:09:06.386Z,89.63
2022-09-23T07:11:34.271Z,89.73
2022-09-23T07:14:02.526Z,89.69
2022-09-23T07:16:30.344Z,89.59
2022-09-23T07:18:58.395Z,89.58
2022-09-23T07:21:27.004Z,89.47
2022-09-23T07:23:55.336Z,89.39
2022-09-23T07:26:23.080Z,89.42
2022-09-23T07:28:55.494Z,89.42
2022-09-23T07:31:35.869Z,89.44
2022-09-23T07:34:07.064Z,89.36
2022-09-23T07:36:37.579Z,89.33
2022-09-23T07:39:05.569Z,89.41
2022-09-23T07:41:34.209Z,89.68
2022-09-23T07:44:03.130Z,89.57
2022-09-23T07:46:34.127Z,89.40
2022-09-23T07:49:03.381Z,89.00
2022-09-23T07:51:36.470Z,88.81
2022-09-23T07:54:10.133Z,88.76
2022-09-23T07:56:39.108Z,88.71
2022-09-23T07:59:09.345Z,88.74
2022-09-23T08:01:40.536Z,88.77
2022-09-23T08:04:14.793Z,88.39
2022-09-23T08:06:57.757Z,88.11
2022-09-23T08:09:28.544Z,88.09
2022-09-23T08:11:56.279Z,87.97
2022-09-23T08:14:24.146Z,87.72
2022-09-23T08:16:52.442Z,87.61
2022-09-23T08:19:20.418Z,87.67
2022-09-23T08:21:52.230Z,87.54
2022-09-23T08:24:23.788Z,87.57
2022-09-23T08:26:53.481Z,87.76
2022-09-23T08:29:23.243Z,87.58
2022-09-23T08:31:52.025Z,86.89
2022-09-23T08:34:21.560Z,86.96
2022-09-23T08:36:50.185Z,87.12
2022-09-23T08:39:20.396Z,87.02
2022-09-23T08:41:59.052Z,86.44
2022-09-23T08:44:48.083Z,85.91
2022-09-23T08:47:24.833Z,86.37
2022-09-23T08:49:59.441Z,85.91
2022-09-23T08:52:31.384Z,86.01
2022-09-23T08:54:59.561Z,85.98
2022-09-23T08:57:43.604Z,85.92
2022-09-23T09:00:20.527Z,85.32
2022-09-23T09:02:49.394Z,85.35
2022-09-23T09:05:25.481Z,85.17
2022-09-23T09:07:57.697Z,85.09
2022-09-23T09:10:41.944Z,84.76
2022-09-23T09:13:43.377Z,84.57
2022-09-23T09:16:59.012Z,84.50
2022-09-23T09:19:48.045Z,84.35
2022-09-23T09:25:25.566Z,82.49
2022-09-23T09:27:54.872Z,81.84
2022-09-23T09:30:25.012Z,82.61
2022-09-23T09:33:02.513Z,82.29
2022-09-23T09:35:57.606Z,81.60
2022-09-23T09:38:27.198Z,81.92
2022-09-23T09:40:56.062Z,81.09
2022-09-23T09:43:23.936Z,79.97
2022-09-23T09:46:14.353Z,79.82
2022-09-23T09:49:15.002Z,78.44
2022-09-23T09:51:42.928Z,78.04
2022-09-23T09:54:27.024Z,77.80
2022-09-23T09:56:55.169Z,74.80
2022-09-23T09:59:28.892Z,73.02
2022-09-23T10:02:21.646Z,71.60
2022-09-23T10:05:02.315Z,73.89
2022-09-23T10:07:32.322Z,73.63
2022-09-23T10:10:32.447Z,73.91
2022-09-23T10:13:15.996Z,72.71
2022-09-23T10:15:45.560Z,72.51
2022-09-23T10:18:20.595Z,72.08
2022-09-23T10:20:48.994Z,70.71
2022-09-23T10:23:22.936Z,70.39
2022-09-23T10:26:10.423Z,69.46
2022-09-23T10:28:51.961Z,69.82
2022-09-23T10:31:25.548Z,70.32
2022-09-23T10:33:57.382Z,70.05
2022-09-23T10:36:26.838Z,70.12
2022-09-23T10:39:20.752Z,69.43
2022-09-23T10:42:16.472Z,69.04
2022-09-23T10:45:02.501Z,66.73
2022-09-23T10:47:47.128Z,67.71
2022-09-23T10:50:33.322Z,67.34
2022-09-23T10:53:08.168Z,66.22
2022-09-23T10:55:54.857Z,64.39
2022-09-23T10:59:03.477Z,62.87
2022-09-23T11:02:00.326Z,65.75
2022-09-23T11:04:51.721Z,64.97
2022-09-23T11:07:37.102Z,64.80
2022-09-23T11:10:05.193Z,63.62
2022-09-23T11:12:44.442Z,64.20
2022-09-23T11:15:21.055Z,64.84
2022-09-23T11:18:16.860Z,64.99
2022-09-23T11:21:23.288Z,65.16
2022-09-23T11:24:28.224Z,65.39
2022-09-23T11:27:08.172Z,65.35
2022-09-23T11:29:59.594Z,63.45
2022-09-23T11:35:45.927Z,61.59
2022-09-23T11:38:28.151Z,60.95
2022-09-23T11:41:02.580Z,61.16
2022-09-23T11:43:37.360Z,61.48
2022-09-23T11:46:17.051Z,60.71
2022-09-23T11:48:47.489Z,60.16
2022-09-23T11:51:48.699Z,59.57
2022-09-23T11:54:22.148Z,59.26
2022-09-23T11:56:58.891Z,58.68
2022-09-23T11:59:46.383Z,58.87
2022-09-23T12:02:30.587Z,57.69
2022-09-23T12:05:08.958Z,57.53
2022-09-23T12:07:45.202Z,55.27
2022-09-23T12:10:14.687Z,56.08
2022-09-23T12:12:53.132Z,56.12
2022-09-23T12:15:34.711Z,55.09
2022-09-23T12:18:34.733Z,55.26
2022-09-23T12:21:38.849Z,55.07
2022-09-23T12:24:31.697Z,56.43
2022-09-23T12:27:06.318Z,55.03
2022-09-23T12:29:36.945Z,51.92
2022-09-23T12:32:10.673Z,52.27
2022-09-23T12:34:49.244Z,50.11
2022-09-23T12:37:43.966Z,50.42
2022-09-23T12:40:34.802Z,51.88
2022-09-23T12:43:03.049Z,51.07
2022-09-23T12:45:32.875Z,49.72
2022-09-23T12:48:04.726Z,48.18
2022-09-23T12:51:00.684Z,48.34
2022-09-23T12:53:34.852Z,51.49
2022-09-23T12:56:19.406Z,51.32
2022-09-23T12:58:47.173Z,50.81
2022-09-23T13:01:15.462Z,51.22
2022-09-23T13:04:09.906Z,52.32
2022-09-23T13:06:49.891Z,51.96
2022-09-23T13:09:25.095Z,50.91
2022-09-23T13:11:53.652Z,48.68
2022-09-23T13:14:27.511Z,50.90
2022-09-23T13:16:58.582Z,52.23
2022-09-23T13:19:26.458Z,50.09
2022-09-23T13:21:54.171Z,51.91
2022-09-23T13:24:31.343Z,51.18
2022-09-23T13:27:01.835Z,50.94
2022-09-23T13:29:37.427Z,52.30
2022-09-23T13:32:06.501Z,52.83
2022-09-23T13:34:38.803Z,52.37
2022-09-23T13:37:32.533Z,52.39
2022-09-23T13:40:17.618Z,53.42
2022-09-23T13:42:51.104Z,54.07
2022-09-23T13:45:21.311Z,53.67
2022-09-23T13:47:51.516Z,53.54
2022-09-23T13:50:23.877Z,54.80
2022-09-23T13:52:56.601Z,55.26
2022-09-23T13:55:27.117Z,55.38
2022-09-23T13:58:13.741Z,55.19
2022-09-23T14:00:41.532Z,53.12
2022-09-23T14:03:25.955Z,53.68
2022-09-23T14:05:56.528Z,53.23
2022-09-23T14:08:25.255Z,53.24
2022-09-23T14:10:53.693Z,52.51
2022-09-23T14:13:26.545Z,52.77
2022-09-23T14:15:59.737Z,53.31
2022-09-23T14:18:44.313Z,53.80
2022-09-23T14:21:50.791Z,53.82
2022-09-23T14:24:35.777Z,53.02
2022-09-23T14:27:06.428Z,51.93
2022-09-23T14:29:39.894Z,50.96
2022-09-23T14:32:11.909Z,51.27
2022-09-23T14:34:41.653Z,51.32
2022-09-23T14:37:37.272Z,52.36
2022-09-23T14:40:12.474Z,53.34
2022-09-23T14:42:43.826Z,53.11
2022-09-23T14:45:19.660Z,53.32
2022-09-23T14:47:51.626Z,52.74
2022-09-23T14:50:47.690Z,52.19
2022-09-23T14:53:24.245Z,52.56
2022-09-23T14:56:07.309Z,53.30
2022-09-23T14:58:54.031Z,53.06
2022-09-23T15:01:31.260Z,52.76
2022-09-23T15:04:17.748Z,52.39
2022-09-23T15:07:02.734Z,52.45
2022-09-23T15:09:40.074Z,52.42
2022-09-23T15:12:16.590Z,52.29
2022-09-23T15:14:49.587Z,53.17
2022-09-23T15:17:25.842Z,53.73
2022-09-23T15:19:57.211Z,52.96
2022-09-23T15:22:25.856Z,52.90
2022-09-23T15:24:56.107Z,53.82
2022-09-23T15:27:34.317Z,53.53
2022-09-23T15:30:15.591Z,54.17
2022-09-23T15:32:45.002Z,54.64
2022-09-23T15:35:21.674Z,55.17
2022-09-23T15:37:50.456Z,54.74
2022-09-23T15:40:21.060Z,56.75
2022-09-23T15:42:52.592Z,55.69
2022-09-23T15:45:26.377Z,56.43
2022-09-23T15:47:55.953Z,57.30
2022-09-23T15:50:23.819Z,57.93
2022-09-23T15:52:51.621Z,57.08
2022-09-23T15:55:23.761Z,58.38
2022-09-23T15:57:51.529Z,57.51
2022-09-23T16:00:19.785Z,59.53
2022-09-23T16:02:49.655Z,60.84
2022-09-23T16:05:49.929Z,62.13
2022-09-23T16:08:23.485Z,63.25
2022-09-23T16:10:51.715Z,64.00
2022-09-23T16:13:19.603Z,64.84
2022-09-23T16:15:47.426Z,65.52
2022-09-23T16:18:15.294Z,65.92
2022-09-23T16:20:45.884Z,66.29
2022-09-23T16:23:38.837Z,66.52
2022-09-23T16:26:15.887Z,67.29
2022-09-23T16:28:44.958Z,67.84
2022-09-23T16:31:17.294Z,68.11
2022-09-23T16:33:47.075Z,68.58
2022-09-23T16:36:25.985Z,68.98
2022-09-23T16:38:57.608Z,68.75
2022-09-23T16:41:29.479Z,68.84
2022-09-23T16:44:00.616Z,69.27
2022-09-23T16:46:29.997Z,69.64
2022-09-23T16:48:59.533Z,69.71
2022-09-23T16:51:30.513Z,70.29
2022-09-23T16:53:59.696Z,70.88
2022-09-23T16:56:29.438Z,71.37
2022-09-23T16:58:57.344Z,71.67
2022-09-23T17:01:46.307Z,72.74
2022-09-23T17:04:17.025Z,72.81
2022-09-23T17:06:50.310Z,72.93
2022-09-23T17:09:20.228Z,73.37
2022-09-23T17:11:58.849Z,73.78
2022-09-23T17:14:29.966Z,74.02
2022-09-23T17:16:58.995Z,74.45
2022-09-23T17:19:26.947Z,74.30
2022-09-23T17:21:54.812Z,74.40
2022-09-23T17:24:22.782Z,74.89
2022-09-23T17:26:53.303Z,74.87
2022-09-23T17:29:21.689Z,75.03
2022-09-23T17:31:49.901Z,75.37
2022-09-23T17:34:19.473Z,75.88
2022-09-23T17:36:47.190Z,76.19
2022-09-23T17:39:14.994Z,76.49
2022-09-23T17:41:43.471Z,76.71
2022-09-23T17:44:11.786Z,76.89
2022-09-23T17:46:39.622Z,77.18
2022-09-23T17:49:08.625Z,77.14
2022-09-23T17:51:37.396Z,77.41
2022-09-23T17:54:05.286Z,77.67
2022-09-23T17:56:34.161Z,77.98
2022-09-23T17:59:03.717Z,78.32
2022-09-23T18:01:32.024Z,78.34
2022-09-23T18:04:02.046Z,78.36
2022-09-23T18:06:32.474Z,78.53
2022-09-23T18:09:03.752Z,78.91
2022-09-23T18:11:35.582Z,79.04
2022-09-23T18:14:07.935Z,79.54
2022-09-23T18:16:37.793Z,79.53
2022-09-23T18:19:07.276Z,79.75
2022-09-23T18:21:37.932Z,79.70
2022-09-23T18:24:30.863Z,79.86
2022-09-23T18:26:56.281Z,79.78
2022-09-23T18:29:24.051Z,79.87
2022-09-23T18:31:51.900Z,80.21
2022-09-23T18:34:20.463Z,80.17
2022-09-23T18:36:48.340Z,80.18
2022-09-23T18:39:16.106Z,80.24
2022-09-23T18:41:43.923Z,80.33
2022-09-23T18:44:11.801Z,80.53
2022-09-23T18:46:39.791Z,80.55
2022-09-23T18:49:27.158Z,80.71
2022-09-23T18:51:57.216Z,80.83
2022-09-23T18:54:28.230Z,80.89
2022-09-23T18:56:56.759Z,80.81
2022-09-23T18:59:28.097Z,81.07
2022-09-23T19:01:57.651Z,81.24
2022-09-23T19:04:27.383Z,81.45
2022-09-23T19:06:56.847Z,82.06
2022-09-23T19:09:25.556Z,82.38
2022-09-23T19:11:53.925Z,82.10
2022-09-23T19:14:21.799Z,81.74
2022-09-23T19:16:50.790Z,81.63
2022-09-23T19:19:18.615Z,81.78
2022-09-23T19:21:46.467Z,81.77
2022-09-23T19:24:19.964Z,81.58
2022-09-23T19:26:48.781Z,81.68
2022-09-23T19:29:22.194Z,81.63
2022-09-23T19:31:50.219Z,81.72
2022-09-23T19:34:23.763Z,81.95
2022-09-23T19:36:52.888Z,82.13
2022-09-23T19:39:23.102Z,82.11
2022-09-23T19:41:52.547Z,82.26
2022-09-23T19:44:20.509Z,82.20
2022-09-23T19:46:55.112Z,82.10
2022-09-23T19:49:24.888Z,82.26
2022-09-23T19:51:55.831Z,82.22
2022-09-23T19:54:26.715Z,82.17
2022-09-23T19:56:54.720Z,82.42
2022-09-23T19:59:22.550Z,82.15
2022-09-23T20:01:50.401Z,82.10
2022-09-23T20:04:18.286Z,82.02
2022-09-23T20:06:46.426Z,82.04
2022-09-23T20:09:14.588Z,81.98
2022-09-23T20:11:44.307Z,82.08
2022-09-23T20:14:12.999Z,82.03
2022-09-23T20:16:40.847Z,81.87
2022-09-23T20:19:10.157Z,81.93
2022-09-23T20:21:37.993Z,81.90
2022-09-23T20:24:07.056Z,81.85
2022-09-23T20:26:53.433Z,81.82
2022-09-23T20:29:21.963Z,81.84
2022-09-23T20:31:49.768Z,81.85
2022-09-23T20:34:18.864Z,82.00
2022-09-23T20:36:46.638Z,82.00
2022-09-23T20:39:14.457Z,81.98
2022-09-23T20:41:42.300Z,82.04
2022-09-23T20:44:12.718Z,82.19
2022-09-23T20:46:47.910Z,82.17
2022-09-23T20:49:17.748Z,82.19
2022-09-23T20:51:48.248Z,82.36
2022-09-23T20:54:19.381Z,82.40
2022-09-23T20:56:48.851Z,82.30
2022-09-23T20:59:18.325Z,82.27
2022-09-23T21:01:47.499Z,82.27
2022-09-23T21:04:15.630Z,82.41
2022-09-23T21:06:43.676Z,82.49
2022-09-23T21:09:11.480Z,82.57
2022-09-23T21:11:39.276Z,82.42
2022-09-23T21:14:07.183Z,82.50
2022-09-23T21:16:35.284Z,82.66
2022-09-23T21:19:03.935Z,82.70
2022-09-23T21:21:31.767Z,82.83
2022-09-23T21:24:17.471Z,82.87
2022-09-23T21:26:47.901Z,82.85
2022-09-23T21:29:16.538Z,82.80
2022-09-23T21:31:44.402Z,82.94
2022-09-23T21:34:12.736Z,82.97
2022-09-23T21:36:43.274Z,83.04
2022-09-23T21:39:12.456Z,83.08
2022-09-23T21:41:40.574Z,83.22
2022-09-23T21:44:08.674Z,83.01
2022-09-23T21:46:37.147Z,82.99
2022-09-23T21:49:05.093Z,83.12
2022-09-23T21:51:37.688Z,83.36
2022-09-23T21:54:06.498Z,83.26
2022-09-23T21:56:36.674Z,83.32
2022-09-23T21:59:07.712Z,83.29
2022-09-23T22:01:38.427Z,83.38
2022-09-23T22:04:13.313Z,83.52
2022-09-23T22:06:41.361Z,83.47
2022-09-23T22:09:13.541Z,83.42
2022-09-23T22:12:00.707Z,83.39
2022-09-23T22:14:30.567Z,83.35
2022-09-23T22:17:01.557Z,83.48
2022-09-23T22:19:44.343Z,83.34
2022-09-23T22:22:16.683Z,83.46
2022-09-23T22:24:46.672Z,83.63
2022-09-23T22:27:16.987Z,84.20
2022-09-23T22:30:03.817Z,83.80
2022-09-23T22:32:34.706Z,83.75
2022-09-23T22:35:02.738Z,83.86
2022-09-23T22:37:34.351Z,83.94
2022-09-23T22:40:05.459Z,84.17
2022-09-23T22:42:33.307Z,83.98
2022-09-23T22:45:01.046Z,83.84
2022-09-23T22:47:28.820Z,83.95
2022-09-23T22:49:56.584Z,83.93
2022-09-23T22:52:24.566Z,84.00
2022-09-23T22:54:53.018Z,84.05
2022-09-23T22:57:20.793Z,84.17
2022-09-23T22:59:48.576Z,84.18
2022-09-23T23:02:21.952Z,84.00
2022-09-23T23:04:50.651Z,83.94
2022-09-23T23:07:21.301Z,84.14
2022-09-23T23:09:50.557Z,84.29
2022-09-23T23:12:20.439Z,84.34
2022-09-23T23:14:49.503Z,84.21
2022-09-23T23:17:18.845Z,84.12
2022-09-23T23:19:47.603Z,84.25
2022-09-23T23:22:15.651Z,84.22
2022-09-23T23:24:43.449Z,84.29
2022-09-23T23:27:11.178Z,84.33
2022-09-23T23:29:38.908Z,84.24
2022-09-23T23:32:07.756Z,84.39
2022-09-23T23:34:35.482Z,84.52
2022-09-23T23:37:03.334Z,84.45
2022-09-23T23:39:31.091Z,84.37
2022-09-23T23:41:58.813Z,84.48
2022-09-23T23:44:27.433Z,84.49
2022-09-23T23:46:55.369Z,84.61
2022-09-23T23:49:23.575Z,84.64
2022-09-23T23:51:51.510Z,84.55
2022-09-23T23:54:19.247Z,84.49
2022-09-23T23:56:47.173Z,84.56
2022-09-23T23:59:15.456Z,84.49
